sensor_id;sensor_type;location;lat;lon;timestamp;temperature;humidity
292;DHT22;23311;48.776;9.162;2022-07-01T00:01:17;14.90;95.50
292;DHT22;23311;48.776;9.162;2022-07-01T00:03:46;14.80;95.50
292;DHT22;23311;48.776;9.162;2022-07-01T00:06:17;14.80;95.50
292;DHT22;23311;48.776;9.162;2022-07-01T00:08:45;14.80;95.50
292;DHT22;23311;48.776;9.162;2022-07-01T00:11:14;14.80;95.50
292;DHT22;23311;48.776;9.162;2022-07-01T00:13:44;14.70;95.50
292;DHT22;23311;48.776;9.162;2022-07-01T00:16:12;14.60;95.50
292;DHT22;23311;48.776;9.162;2022-07-01T00:18:40;14.60;95.50
292;DHT22;23311;48.776;9.162;2022-07-01T00:21:08;14.60;95.50
292;DHT22;23311;48.776;9.162;2022-07-01T00:23:40;14.50;95.50
292;DHT22;23311;48.776;9.162;2022-07-01T00:26:08;14.50;95.50
292;DHT22;23311;48.776;9.162;2022-07-01T00:28:36;14.40;95.50
292;DHT22;23311;48.776;9.162;2022-07-01T00:31:06;14.40;95.50
292;DHT22;23311;48.776;9.162;2022-07-01T00:33:34;14.40;95.50
292;DHT22;23311;48.776;9.162;2022-07-01T00:36:02;14.40;95.50
292;DHT22;23311;48.776;9.162;2022-07-01T00:38:30;14.40;95.50
292;DHT22;23311;48.776;9.162;2022-07-01T00:40:58;14.40;95.50
292;DHT22;23311;48.776;9.162;2022-07-01T00:43:26;14.40;95.50
292;DHT22;23311;48.776;9.162;2022-07-01T00:46:16;14.40;95.50
292;DHT22;23311;48.776;9.162;2022-07-01T00:48:49;14.30;95.50
292;DHT22;23311;48.776;9.162;2022-07-01T00:51:18;14.20;95.50
292;DHT22;23311;48.776;9.162;2022-07-01T00:53:47;14.10;95.50
292;DHT22;23311;48.776;9.162;2022-07-01T00:56:15;14.20;95.50
292;DHT22;23311;48.776;9.162;2022-07-01T00:58:44;14.10;95.50
292;DHT22;23311;48.776;9.162;2022-07-01T01:01:12;14.20;95.50
292;DHT22;23311;48.776;9.162;2022-07-01T01:03:42;14.20;95.50
292;DHT22;23311;48.776;9.162;2022-07-01T01:06:11;14.20;95.50
292;DHT22;23311;48.776;9.162;2022-07-01T01:08:39;14.30;95.50
292;DHT22;23311;48.776;9.162;2022-07-01T01:11:07;14.20;95.50
292;DHT22;23311;48.776;9.162;2022-07-01T01:13:35;14.20;95.50
292;DHT22;23311;48.776;9.162;2022-07-01T01:16:04;14.20;95.50
292;DHT22;23311;48.776;9.162;2022-07-01T01:18:32;14.20;95.50
292;DHT22;23311;48.776;9.162;2022-07-01T01:21:02;14.20;95.50
292;DHT22;23311;48.776;9.162;2022-07-01T01:23:30;14.30;95.50
292;DHT22;23311;48.776;9.162;2022-07-01T01:25:59;14.30;95.50
292;DHT22;23311;48.776;9.162;2022-07-01T01:28:28;14.30;95.50
292;DHT22;23311;48.776;9.162;2022-07-01T01:30:56;14.40;95.50
292;DHT22;23311;48.776;9.162;2022-07-01T01:33:24;14.40;95.50
292;DHT22;23311;48.776;9.162;2022-07-01T01:35:52;14.40;95.50
292;DHT22;23311;48.776;9.162;2022-07-01T01:38:21;14.30;95.50
292;DHT22;23311;48.776;9.162;2022-07-01T01:40:49;14.30;95.50
292;DHT22;23311;48.776;9.162;2022-07-01T01:43:17;14.30;95.50
292;DHT22;23311;48.776;9.162;2022-07-01T01:45:45;14.30;95.50
292;DHT22;23311;48.776;9.162;2022-07-01T01:48:13;14.30;95.50
292;DHT22;23311;48.776;9.162;2022-07-01T01:50:41;14.40;95.50
292;DHT22;23311;48.776;9.162;2022-07-01T01:53:09;14.30;95.50
292;DHT22;23311;48.776;9.162;2022-07-01T01:55:39;14.40;95.50
292;DHT22;23311;48.776;9.162;2022-07-01T01:58:07;14.40;95.50
292;DHT22;23311;48.776;9.162;2022-07-01T02:00:34;14.40;95.50
292;DHT22;23311;48.776;9.162;2022-07-01T02:03:03;14.40;95.50
292;DHT22;23311;48.776;9.162;2022-07-01T02:05:31;14.40;95.50
292;DHT22;23311;48.776;9.162;2022-07-01T02:08:00;14.50;95.50
292;DHT22;23311;48.776;9.162;2022-07-01T02:10:28;14.50;95.50
292;DHT22;23311;48.776;9.162;2022-07-01T02:12:57;14.50;95.50
292;DHT22;23311;48.776;9.162;2022-07-01T02:15:25;14.50;95.50
292;DHT22;23311;48.776;9.162;2022-07-01T02:17:53;14.50;95.50
292;DHT22;23311;48.776;9.162;2022-07-01T02:20:23;14.50;95.50
292;DHT22;23311;48.776;9.162;2022-07-01T02:22:51;14.40;95.50
292;DHT22;23311;48.776;9.162;2022-07-01T02:25:19;14.40;95.50
292;DHT22;23311;48.776;9.162;2022-07-01T02:27:47;14.30;95.50
292;DHT22;23311;48.776;9.162;2022-07-01T02:30:17;14.30;95.50
292;DHT22;23311;48.776;9.162;2022-07-01T02:32:45;14.20;95.50
292;DHT22;23311;48.776;9.162;2022-07-01T02:35:13;14.20;95.50
292;DHT22;23311;48.776;9.162;2022-07-01T02:37:41;14.20;95.50
292;DHT22;23311;48.776;9.162;2022-07-01T02:40:10;14.10;95.50
292;DHT22;23311;48.776;9.162;2022-07-01T02:42:39;14.10;95.50
292;DHT22;23311;48.776;9.162;2022-07-01T02:45:07;14.10;95.50
292;DHT22;23311;48.776;9.162;2022-07-01T02:47:38;14.20;95.50
292;DHT22;23311;48.776;9.162;2022-07-01T02:50:07;14.20;95.50
292;DHT22;23311;48.776;9.162;2022-07-01T02:52:37;14.20;95.50
292;DHT22;23311;48.776;9.162;2022-07-01T02:55:07;14.20;95.50
292;DHT22;23311;48.776;9.162;2022-07-01T02:57:35;14.20;95.50
292;DHT22;23311;48.776;9.162;2022-07-01T03:00:06;14.10;95.50
292;DHT22;23311;48.776;9.162;2022-07-01T03:02:34;14.20;95.50
292;DHT22;23311;48.776;9.162;2022-07-01T03:05:05;14.20;95.50
292;DHT22;23311;48.776;9.162;2022-07-01T03:07:33;14.20;95.50
292;DHT22;23311;48.776;9.162;2022-07-01T03:10:03;14.20;95.50
292;DHT22;23311;48.776;9.162;2022-07-01T03:12:31;14.30;95.50
292;DHT22;23311;48.776;9.162;2022-07-01T03:15:03;14.20;95.50
292;DHT22;23311;48.776;9.162;2022-07-01T03:17:32;14.30;95.50
292;DHT22;23311;48.776;9.162;2022-07-01T03:20:07;14.30;95.50
292;DHT22;23311;48.776;9.162;2022-07-01T03:22:37;14.30;95.50
292;DHT22;23311;48.776;9.162;2022-07-01T03:25:06;14.40;95.50
292;DHT22;23311;48.776;9.162;2022-07-01T03:27:34;14.40;95.50
292;DHT22;23311;48.776;9.162;2022-07-01T03:30:04;14.40;95.50
292;DHT22;23311;48.776;9.162;2022-07-01T03:32:33;14.40;95.50
292;DHT22;23311;48.776;9.162;2022-07-01T03:35:02;14.40;95.50
292;DHT22;23311;48.776;9.162;2022-07-01T03:37:54;14.50;95.50
292;DHT22;23311;48.776;9.162;2022-07-01T03:40:22;14.40;95.50
292;DHT22;23311;48.776;9.162;2022-07-01T03:42:50;14.50;95.50
292;DHT22;23311;48.776;9.162;2022-07-01T03:45:18;14.60;95.50
292;DHT22;23311;48.776;9.162;2022-07-01T03:47:47;14.60;95.50
292;DHT22;23311;48.776;9.162;2022-07-01T03:50:15;14.60;95.50
292;DHT22;23311;48.776;9.162;2022-07-01T03:52:43;14.70;95.50
292;DHT22;23311;48.776;9.162;2022-07-01T03:55:13;14.70;95.50
292;DHT22;23311;48.776;9.162;2022-07-01T03:57:40;14.70;95.50
292;DHT22;23311;48.776;9.162;2022-07-01T04:00:09;14.70;95.50
292;DHT22;23311;48.776;9.162;2022-07-01T04:02:42;14.60;95.50
292;DHT22;23311;48.776;9.162;2022-07-01T04:05:10;14.50;95.50
292;DHT22;23311;48.776;9.162;2022-07-01T04:07:38;14.40;95.50
292;DHT22;23311;48.776;9.162;2022-07-01T04:10:07;14.20;95.50
292;DHT22;23311;48.776;9.162;2022-07-01T04:12:36;14.00;95.50
292;DHT22;23311;48.776;9.162;2022-07-01T04:15:05;13.90;95.50
292;DHT22;23311;48.776;9.162;2022-07-01T04:17:33;13.80;95.50
292;DHT22;23311;48.776;9.162;2022-07-01T04:20:02;13.80;95.50
292;DHT22;23311;48.776;9.162;2022-07-01T04:22:30;13.80;95.50
292;DHT22;23311;48.776;9.162;2022-07-01T04:25:00;13.70;95.50
292;DHT22;23311;48.776;9.162;2022-07-01T04:27:30;13.70;95.50
292;DHT22;23311;48.776;9.162;2022-07-01T04:29:59;13.70;95.50
292;DHT22;23311;48.776;9.162;2022-07-01T04:32:29;13.80;95.50
292;DHT22;23311;48.776;9.162;2022-07-01T04:34:58;13.80;95.50
292;DHT22;23311;48.776;9.162;2022-07-01T04:37:26;13.80;95.50
292;DHT22;23311;48.776;9.162;2022-07-01T04:39:54;13.70;95.50
292;DHT22;23311;48.776;9.162;2022-07-01T04:42:22;13.70;95.50
292;DHT22;23311;48.776;9.162;2022-07-01T04:44:50;13.70;95.50
292;DHT22;23311;48.776;9.162;2022-07-01T04:47:20;13.70;95.50
292;DHT22;23311;48.776;9.162;2022-07-01T04:49:49;13.60;95.50
292;DHT22;23311;48.776;9.162;2022-07-01T04:52:17;13.70;95.50
292;DHT22;23311;48.776;9.162;2022-07-01T04:54:45;13.80;95.50
292;DHT22;23311;48.776;9.162;2022-07-01T04:57:13;13.70;95.50
292;DHT22;23311;48.776;9.162;2022-07-01T04:59:41;13.60;95.50
292;DHT22;23311;48.776;9.162;2022-07-01T05:02:09;13.60;95.50
292;DHT22;23311;48.776;9.162;2022-07-01T05:04:40;13.50;95.50
292;DHT22;23311;48.776;9.162;2022-07-01T05:07:08;13.40;95.50
292;DHT22;23311;48.776;9.162;2022-07-01T05:09:55;13.50;95.50
292;DHT22;23311;48.776;9.162;2022-07-01T05:12:24;13.50;95.50
292;DHT22;23311;48.776;9.162;2022-07-01T05:14:52;13.60;95.50
292;DHT22;23311;48.776;9.162;2022-07-01T05:17:20;13.60;95.50
292;DHT22;23311;48.776;9.162;2022-07-01T05:20:10;13.60;95.50
292;DHT22;23311;48.776;9.162;2022-07-01T05:22:56;13.50;95.50
292;DHT22;23311;48.776;9.162;2022-07-01T05:25:24;13.40;95.50
292;DHT22;23311;48.776;9.162;2022-07-01T05:27:52;13.50;95.50
292;DHT22;23311;48.776;9.162;2022-07-01T05:30:21;13.50;95.50
292;DHT22;23311;48.776;9.162;2022-07-01T05:32:49;13.50;95.50
292;DHT22;23311;48.776;9.162;2022-07-01T05:35:18;13.60;95.50
292;DHT22;23311;48.776;9.162;2022-07-01T05:37:46;13.60;95.50
292;DHT22;23311;48.776;9.162;2022-07-01T05:40:14;13.60;95.50
292;DHT22;23311;48.776;9.162;2022-07-01T05:42:42;13.60;95.50
292;DHT22;23311;48.776;9.162;2022-07-01T05:45:10;13.70;95.50
292;DHT22;23311;48.776;9.162;2022-07-01T05:47:38;13.60;95.50
292;DHT22;23311;48.776;9.162;2022-07-01T05:50:08;13.60;95.50
292;DHT22;23311;48.776;9.162;2022-07-01T05:52:37;13.60;95.50
292;DHT22;23311;48.776;9.162;2022-07-01T05:55:06;13.70;95.50
292;DHT22;23311;48.776;9.162;2022-07-01T05:57:34;13.70;95.50
292;DHT22;23311;48.776;9.162;2022-07-01T06:00:03;13.80;95.50
292;DHT22;23311;48.776;9.162;2022-07-01T06:02:31;13.70;95.50
292;DHT22;23311;48.776;9.162;2022-07-01T06:04:59;13.60;95.50
292;DHT22;23311;48.776;9.162;2022-07-01T06:07:27;13.60;95.50
292;DHT22;23311;48.776;9.162;2022-07-01T06:09:57;13.60;95.50
292;DHT22;23311;48.776;9.162;2022-07-01T06:12:25;13.80;95.50
292;DHT22;23311;48.776;9.162;2022-07-01T06:14:53;13.80;95.50
292;DHT22;23311;48.776;9.162;2022-07-01T06:17:21;13.70;95.50
292;DHT22;23311;48.776;9.162;2022-07-01T06:19:49;13.70;95.50
292;DHT22;23311;48.776;9.162;2022-07-01T06:22:17;13.70;95.50
292;DHT22;23311;48.776;9.162;2022-07-01T06:24:47;13.70;95.50
292;DHT22;23311;48.776;9.162;2022-07-01T06:27:17;13.80;95.50
292;DHT22;23311;48.776;9.162;2022-07-01T06:29:45;13.80;95.50
292;DHT22;23311;48.776;9.162;2022-07-01T06:32:13;13.90;95.50
292;DHT22;23311;48.776;9.162;2022-07-01T06:34:41;14.00;95.50
292;DHT22;23311;48.776;9.162;2022-07-01T06:37:09;14.00;95.50
292;DHT22;23311;48.776;9.162;2022-07-01T06:39:37;14.00;95.50
292;DHT22;23311;48.776;9.162;2022-07-01T06:42:06;13.90;95.50
292;DHT22;23311;48.776;9.162;2022-07-01T06:44:36;14.00;95.50
292;DHT22;23311;48.776;9.162;2022-07-01T06:47:05;14.10;95.50
292;DHT22;23311;48.776;9.162;2022-07-01T06:49:33;14.10;95.50
292;DHT22;23311;48.776;9.162;2022-07-01T06:52:01;14.10;95.50
292;DHT22;23311;48.776;9.162;2022-07-01T06:54:29;14.00;95.50
292;DHT22;23311;48.776;9.162;2022-07-01T06:56:57;14.10;95.50
292;DHT22;23311;48.776;9.162;2022-07-01T06:59:25;14.10;95.50
292;DHT22;23311;48.776;9.162;2022-07-01T07:01:55;14.20;95.50
292;DHT22;23311;48.776;9.162;2022-07-01T07:04:23;14.20;95.50
292;DHT22;23311;48.776;9.162;2022-07-01T07:07:11;14.20;95.50
292;DHT22;23311;48.776;9.162;2022-07-01T07:09:39;14.30;95.50
292;DHT22;23311;48.776;9.162;2022-07-01T07:12:08;14.40;95.50
292;DHT22;23311;48.776;9.162;2022-07-01T07:14:36;14.40;95.50
292;DHT22;23311;48.776;9.162;2022-07-01T07:17:06;14.50;95.50
292;DHT22;23311;48.776;9.162;2022-07-01T07:19:34;14.50;95.50
292;DHT22;23311;48.776;9.162;2022-07-01T07:22:03;14.40;95.50
292;DHT22;23311;48.776;9.162;2022-07-01T07:24:31;14.30;95.50
292;DHT22;23311;48.776;9.162;2022-07-01T07:26:59;14.30;95.50
292;DHT22;23311;48.776;9.162;2022-07-01T07:29:27;14.50;95.50
292;DHT22;23311;48.776;9.162;2022-07-01T07:31:56;14.60;95.50
292;DHT22;23311;48.776;9.162;2022-07-01T07:34:25;14.50;95.50
292;DHT22;23311;48.776;9.162;2022-07-01T07:36:53;14.40;95.50
292;DHT22;23311;48.776;9.162;2022-07-01T07:39:21;14.30;95.50
292;DHT22;23311;48.776;9.162;2022-07-01T07:41:49;14.50;95.50
292;DHT22;23311;48.776;9.162;2022-07-01T07:44:17;14.50;95.50
292;DHT22;23311;48.776;9.162;2022-07-01T07:46:45;14.60;95.50
292;DHT22;23311;48.776;9.162;2022-07-01T07:49:13;14.70;95.50
292;DHT22;23311;48.776;9.162;2022-07-01T07:51:43;14.70;95.50
292;DHT22;23311;48.776;9.162;2022-07-01T07:54:11;14.80;95.50
292;DHT22;23311;48.776;9.162;2022-07-01T07:56:39;14.90;95.50
292;DHT22;23311;48.776;9.162;2022-07-01T07:59:11;14.80;95.50
292;DHT22;23311;48.776;9.162;2022-07-01T08:01:39;14.70;95.50
292;DHT22;23311;48.776;9.162;2022-07-01T08:04:07;14.50;95.50
292;DHT22;23311;48.776;9.162;2022-07-01T08:06:36;14.40;95.50
292;DHT22;23311;48.776;9.162;2022-07-01T08:09:05;14.30;95.50
292;DHT22;23311;48.776;9.162;2022-07-01T08:11:34;14.30;95.50
292;DHT22;23311;48.776;9.162;2022-07-01T08:14:02;14.40;95.50
292;DHT22;23311;48.776;9.162;2022-07-01T08:16:30;14.30;95.50
292;DHT22;23311;48.776;9.162;2022-07-01T08:18:58;14.30;95.50
292;DHT22;23311;48.776;9.162;2022-07-01T08:21:26;14.30;95.50
292;DHT22;23311;48.776;9.162;2022-07-01T08:23:54;14.50;95.50
292;DHT22;23311;48.776;9.162;2022-07-01T08:26:24;14.50;95.50
292;DHT22;23311;48.776;9.162;2022-07-01T08:28:52;14.50;95.50
292;DHT22;23311;48.776;9.162;2022-07-01T08:31:20;14.60;95.50
292;DHT22;23311;48.776;9.162;2022-07-01T08:33:48;14.70;95.50
292;DHT22;23311;48.776;9.162;2022-07-01T08:36:16;14.90;95.50
292;DHT22;23311;48.776;9.162;2022-07-01T08:38:44;15.00;95.50
292;DHT22;23311;48.776;9.162;2022-07-01T08:41:14;15.00;95.50
292;DHT22;23311;48.776;9.162;2022-07-01T08:43:43;15.00;95.50
292;DHT22;23311;48.776;9.162;2022-07-01T08:46:12;15.00;95.50
292;DHT22;23311;48.776;9.162;2022-07-01T08:48:42;14.90;95.50
292;DHT22;23311;48.776;9.162;2022-07-01T08:51:10;15.10;95.50
292;DHT22;23311;48.776;9.162;2022-07-01T08:53:38;14.90;95.50
292;DHT22;23311;48.776;9.162;2022-07-01T08:56:07;14.70;95.50
292;DHT22;23311;48.776;9.162;2022-07-01T08:58:53;14.60;95.50
292;DHT22;23311;48.776;9.162;2022-07-01T09:01:23;14.50;95.50
292;DHT22;23311;48.776;9.162;2022-07-01T09:03:54;14.40;95.50
292;DHT22;23311;48.776;9.162;2022-07-01T09:06:23;14.60;95.50
292;DHT22;23311;48.776;9.162;2022-07-01T09:08:53;14.70;95.50
292;DHT22;23311;48.776;9.162;2022-07-01T09:11:22;15.00;95.50
292;DHT22;23311;48.776;9.162;2022-07-01T09:14:06;15.00;95.50
292;DHT22;23311;48.776;9.162;2022-07-01T09:16:40;14.90;95.50
292;DHT22;23311;48.776;9.162;2022-07-01T09:19:09;14.80;95.50
292;DHT22;23311;48.776;9.162;2022-07-01T09:21:37;14.80;95.50
292;DHT22;23311;48.776;9.162;2022-07-01T09:24:22;14.70;95.50
292;DHT22;23311;48.776;9.162;2022-07-01T09:26:52;14.60;95.50
292;DHT22;23311;48.776;9.162;2022-07-01T09:29:25;14.50;95.50
292;DHT22;23311;48.776;9.162;2022-07-01T09:31:54;14.40;95.50
292;DHT22;23311;48.776;9.162;2022-07-01T09:34:22;14.30;95.50
292;DHT22;23311;48.776;9.162;2022-07-01T09:36:54;14.30;95.50
292;DHT22;23311;48.776;9.162;2022-07-01T09:39:23;14.30;95.50
292;DHT22;23311;48.776;9.162;2022-07-01T09:42:07;14.30;95.50
292;DHT22;23311;48.776;9.162;2022-07-01T09:44:51;14.20;95.50
292;DHT22;23311;48.776;9.162;2022-07-01T09:47:25;14.20;95.50
292;DHT22;23311;48.776;9.162;2022-07-01T09:49:54;14.10;95.50
292;DHT22;23311;48.776;9.162;2022-07-01T09:52:23;14.20;95.50
292;DHT22;23311;48.776;9.162;2022-07-01T09:54:52;14.30;95.50
292;DHT22;23311;48.776;9.162;2022-07-01T09:57:21;14.30;95.50
292;DHT22;23311;48.776;9.162;2022-07-01T09:59:51;14.30;95.50
292;DHT22;23311;48.776;9.162;2022-07-01T10:02:21;14.30;95.50
292;DHT22;23311;48.776;9.162;2022-07-01T10:04:53;14.40;95.50
292;DHT22;23311;48.776;9.162;2022-07-01T10:07:35;14.70;95.50
292;DHT22;23311;48.776;9.162;2022-07-01T10:10:13;14.90;95.50
292;DHT22;23311;48.776;9.162;2022-07-01T10:12:46;15.10;95.50
292;DHT22;23311;48.776;9.162;2022-07-01T10:15:19;15.30;95.50
292;DHT22;23311;48.776;9.162;2022-07-01T10:17:50;15.40;95.50
292;DHT22;23311;48.776;9.162;2022-07-01T10:20:19;15.60;95.50
292;DHT22;23311;48.776;9.162;2022-07-01T10:23:00;15.80;95.50
292;DHT22;23311;48.776;9.162;2022-07-01T10:25:31;16.10;95.50
292;DHT22;23311;48.776;9.162;2022-07-01T10:28:19;16.40;95.50
292;DHT22;23311;48.776;9.162;2022-07-01T10:30:52;16.60;95.50
292;DHT22;23311;48.776;9.162;2022-07-01T10:33:33;17.10;95.50
292;DHT22;23311;48.776;9.162;2022-07-01T10:36:07;17.70;95.50
292;DHT22;23311;48.776;9.162;2022-07-01T10:38:36;18.20;95.50
292;DHT22;23311;48.776;9.162;2022-07-01T10:41:24;18.50;94.60
292;DHT22;23311;48.776;9.162;2022-07-01T10:43:53;18.60;95.10
292;DHT22;23311;48.776;9.162;2022-07-01T10:46:40;18.60;93.50
292;DHT22;23311;48.776;9.162;2022-07-01T10:49:11;18.90;92.70
292;DHT22;23311;48.776;9.162;2022-07-01T10:51:46;18.80;92.60
292;DHT22;23311;48.776;9.162;2022-07-01T10:57:23;18.80;91.80
292;DHT22;23311;48.776;9.162;2022-07-01T10:59:55;18.80;91.00
292;DHT22;23311;48.776;9.162;2022-07-01T11:02:26;18.60;92.20
292;DHT22;23311;48.776;9.162;2022-07-01T11:04:56;18.40;92.30
292;DHT22;23311;48.776;9.162;2022-07-01T11:07:25;18.40;92.30
292;DHT22;23311;48.776;9.162;2022-07-01T11:09:53;18.80;91.40
292;DHT22;23311;48.776;9.162;2022-07-01T11:12:22;18.50;91.70
292;DHT22;23311;48.776;9.162;2022-07-01T11:14:51;19.10;90.90
292;DHT22;23311;48.776;9.162;2022-07-01T11:17:21;19.10;89.00
292;DHT22;23311;48.776;9.162;2022-07-01T11:19:52;19.20;89.40
292;DHT22;23311;48.776;9.162;2022-07-01T11:22:21;18.90;88.90
292;DHT22;23311;48.776;9.162;2022-07-01T11:24:52;18.40;90.50
292;DHT22;23311;48.776;9.162;2022-07-01T11:27:21;18.10;90.60
292;DHT22;23311;48.776;9.162;2022-07-01T11:29:51;18.00;91.00
292;DHT22;23311;48.776;9.162;2022-07-01T11:32:24;18.30;89.70
292;DHT22;23311;48.776;9.162;2022-07-01T11:34:54;18.00;90.80
292;DHT22;23311;48.776;9.162;2022-07-01T11:37:22;18.10;90.50
292;DHT22;23311;48.776;9.162;2022-07-01T11:40:12;18.60;89.20
292;DHT22;23311;48.776;9.162;2022-07-01T11:42:41;19.20;88.80
292;DHT22;23311;48.776;9.162;2022-07-01T11:45:22;20.00;86.70
292;DHT22;23311;48.776;9.162;2022-07-01T11:47:50;21.10;83.70
292;DHT22;23311;48.776;9.162;2022-07-01T11:50:20;21.50;81.30
292;DHT22;23311;48.776;9.162;2022-07-01T11:52:52;21.70;80.20
292;DHT22;23311;48.776;9.162;2022-07-01T11:55:21;22.60;78.40
292;DHT22;23311;48.776;9.162;2022-07-01T11:58:04;23.80;75.90
292;DHT22;23311;48.776;9.162;2022-07-01T12:00:33;23.70;76.40
292;DHT22;23311;48.776;9.162;2022-07-01T12:03:01;24.00;74.60
292;DHT22;23311;48.776;9.162;2022-07-01T12:05:31;23.30;75.90
292;DHT22;23311;48.776;9.162;2022-07-01T12:08:04;23.30;75.90
292;DHT22;23311;48.776;9.162;2022-07-01T12:10:35;23.50;75.10
292;DHT22;23311;48.776;9.162;2022-07-01T12:13:21;23.70;74.80
292;DHT22;23311;48.776;9.162;2022-07-01T12:15:49;24.30;74.20
292;DHT22;23311;48.776;9.162;2022-07-01T12:18:18;25.10;71.90
292;DHT22;23311;48.776;9.162;2022-07-01T12:20:53;25.40;71.10
292;DHT22;23311;48.776;9.162;2022-07-01T12:23:21;24.70;72.20
292;DHT22;23311;48.776;9.162;2022-07-01T12:25:50;23.70;73.60
292;DHT22;23311;48.776;9.162;2022-07-01T12:28:30;22.70;75.50
292;DHT22;23311;48.776;9.162;2022-07-01T12:31:02;21.80;78.60
292;DHT22;23311;48.776;9.162;2022-07-01T12:33:31;21.70;78.80
292;DHT22;23311;48.776;9.162;2022-07-01T12:36:02;21.60;78.60
292;DHT22;23311;48.776;9.162;2022-07-01T12:38:31;21.60;79.00
292;DHT22;23311;48.776;9.162;2022-07-01T12:40:59;21.00;79.90
292;DHT22;23311;48.776;9.162;2022-07-01T12:43:29;20.60;81.00
292;DHT22;23311;48.776;9.162;2022-07-01T12:45:59;20.00;82.60
292;DHT22;23311;48.776;9.162;2022-07-01T12:48:28;19.90;83.80
292;DHT22;23311;48.776;9.162;2022-07-01T12:50:57;19.30;84.70
292;DHT22;23311;48.776;9.162;2022-07-01T12:53:28;18.70;86.00
292;DHT22;23311;48.776;9.162;2022-07-01T12:55:57;18.70;85.90
292;DHT22;23311;48.776;9.162;2022-07-01T12:58:27;19.20;85.70
292;DHT22;23311;48.776;9.162;2022-07-01T13:00:57;19.60;84.30
292;DHT22;23311;48.776;9.162;2022-07-01T13:03:27;20.30;82.40
292;DHT22;23311;48.776;9.162;2022-07-01T13:05:56;21.40;80.00
292;DHT22;23311;48.776;9.162;2022-07-01T13:08:24;22.20;77.90
292;DHT22;23311;48.776;9.162;2022-07-01T13:10:54;22.10;78.90
292;DHT22;23311;48.776;9.162;2022-07-01T13:13:22;22.60;77.40
292;DHT22;23311;48.776;9.162;2022-07-01T13:15:50;23.30;77.00
292;DHT22;23311;48.776;9.162;2022-07-01T13:18:18;23.70;75.50
292;DHT22;23311;48.776;9.162;2022-07-01T13:20:47;23.30;77.00
292;DHT22;23311;48.776;9.162;2022-07-01T13:23:15;22.80;79.40
292;DHT22;23311;48.776;9.162;2022-07-01T13:25:43;22.40;79.80
292;DHT22;23311;48.776;9.162;2022-07-01T13:28:12;22.50;80.40
292;DHT22;23311;48.776;9.162;2022-07-01T13:30:41;22.20;80.50
292;DHT22;23311;48.776;9.162;2022-07-01T13:33:09;22.50;79.20
292;DHT22;23311;48.776;9.162;2022-07-01T13:35:37;22.60;79.00
292;DHT22;23311;48.776;9.162;2022-07-01T13:38:05;22.30;79.30
292;DHT22;23311;48.776;9.162;2022-07-01T13:40:33;22.40;80.00
292;DHT22;23311;48.776;9.162;2022-07-01T13:43:01;22.50;79.60
292;DHT22;23311;48.776;9.162;2022-07-01T13:45:30;22.90;78.30
292;DHT22;23311;48.776;9.162;2022-07-01T13:47:58;23.00;77.20
292;DHT22;23311;48.776;9.162;2022-07-01T13:50:26;22.70;78.50
292;DHT22;23311;48.776;9.162;2022-07-01T13:52:54;22.20;79.70
292;DHT22;23311;48.776;9.162;2022-07-01T13:55:22;21.80;80.30
292;DHT22;23311;48.776;9.162;2022-07-01T13:57:51;21.60;81.50
292;DHT22;23311;48.776;9.162;2022-07-01T14:00:19;21.90;81.00
292;DHT22;23311;48.776;9.162;2022-07-01T14:02:48;21.90;81.50
292;DHT22;23311;48.776;9.162;2022-07-01T14:05:16;21.70;81.50
292;DHT22;23311;48.776;9.162;2022-07-01T14:07:44;21.60;82.00
292;DHT22;23311;48.776;9.162;2022-07-01T14:10:13;21.80;81.50
292;DHT22;23311;48.776;9.162;2022-07-01T14:12:41;21.70;81.10
292;DHT22;23311;48.776;9.162;2022-07-01T14:15:10;21.40;82.60
292;DHT22;23311;48.776;9.162;2022-07-01T14:17:38;21.20;83.50
292;DHT22;23311;48.776;9.162;2022-07-01T14:20:09;21.40;82.20
292;DHT22;23311;48.776;9.162;2022-07-01T14:22:37;21.80;81.20
292;DHT22;23311;48.776;9.162;2022-07-01T14:25:06;22.70;79.80
292;DHT22;23311;48.776;9.162;2022-07-01T14:27:34;24.10;76.20
292;DHT22;23311;48.776;9.162;2022-07-01T14:30:04;25.20;73.30
292;DHT22;23311;48.776;9.162;2022-07-01T14:32:34;24.90;72.90
292;DHT22;23311;48.776;9.162;2022-07-01T14:35:02;24.80;73.60
292;DHT22;23311;48.776;9.162;2022-07-01T14:37:32;24.80;72.90
292;DHT22;23311;48.776;9.162;2022-07-01T14:40:00;24.90;72.10
292;DHT22;23311;48.776;9.162;2022-07-01T14:42:28;25.20;71.00
292;DHT22;23311;48.776;9.162;2022-07-01T14:44:56;25.50;70.70
292;DHT22;23311;48.776;9.162;2022-07-01T14:47:24;25.20;71.20
292;DHT22;23311;48.776;9.162;2022-07-01T14:49:53;25.20;71.20
292;DHT22;23311;48.776;9.162;2022-07-01T14:52:21;25.50;70.70
292;DHT22;23311;48.776;9.162;2022-07-01T14:54:51;25.80;71.20
292;DHT22;23311;48.776;9.162;2022-07-01T14:57:19;25.20;71.20
292;DHT22;23311;48.776;9.162;2022-07-01T14:59:47;24.00;73.60
292;DHT22;23311;48.776;9.162;2022-07-01T15:02:15;24.90;72.80
292;DHT22;23311;48.776;9.162;2022-07-01T15:04:44;25.40;70.90
292;DHT22;23311;48.776;9.162;2022-07-01T15:07:13;25.40;70.60
292;DHT22;23311;48.776;9.162;2022-07-01T15:09:41;25.40;71.00
292;DHT22;23311;48.776;9.162;2022-07-01T15:12:11;25.40;70.80
292;DHT22;23311;48.776;9.162;2022-07-01T15:14:39;25.90;69.20
292;DHT22;23311;48.776;9.162;2022-07-01T15:17:08;25.60;68.90
292;DHT22;23311;48.776;9.162;2022-07-01T15:19:36;25.80;69.10
292;DHT22;23311;48.776;9.162;2022-07-01T15:22:07;26.10;68.80
292;DHT22;23311;48.776;9.162;2022-07-01T15:24:36;25.20;69.80
292;DHT22;23311;48.776;9.162;2022-07-01T15:27:06;24.00;72.00
292;DHT22;23311;48.776;9.162;2022-07-01T15:29:35;22.20;75.20
292;DHT22;23311;48.776;9.162;2022-07-01T15:32:05;21.60;76.80
292;DHT22;23311;48.776;9.162;2022-07-01T15:34:33;21.20;78.30
292;DHT22;23311;48.776;9.162;2022-07-01T15:37:01;21.60;78.10
292;DHT22;23311;48.776;9.162;2022-07-01T15:39:30;23.00;75.50
292;DHT22;23311;48.776;9.162;2022-07-01T15:41:58;24.40;71.70
292;DHT22;23311;48.776;9.162;2022-07-01T15:44:29;25.40;70.20
292;DHT22;23311;48.776;9.162;2022-07-01T15:46:59;26.50;67.70
292;DHT22;23311;48.776;9.162;2022-07-01T15:49:49;27.30;66.20
292;DHT22;23311;48.776;9.162;2022-07-01T15:52:18;27.60;65.50
292;DHT22;23311;48.776;9.162;2022-07-01T15:54:46;27.20;66.10
292;DHT22;23311;48.776;9.162;2022-07-01T15:57:14;27.20;66.20
292;DHT22;23311;48.776;9.162;2022-07-01T15:59:42;26.50;67.00
292;DHT22;23311;48.776;9.162;2022-07-01T16:02:12;26.70;66.50
292;DHT22;23311;48.776;9.162;2022-07-01T16:04:46;26.90;66.60
292;DHT22;23311;48.776;9.162;2022-07-01T16:07:18;27.40;65.70
292;DHT22;23311;48.776;9.162;2022-07-01T16:09:52;27.20;65.20
292;DHT22;23311;48.776;9.162;2022-07-01T16:12:25;27.30;65.60
292;DHT22;23311;48.776;9.162;2022-07-01T16:14:53;27.70;64.10
292;DHT22;23311;48.776;9.162;2022-07-01T16:17:24;27.60;64.30
292;DHT22;23311;48.776;9.162;2022-07-01T16:19:54;26.40;65.30
292;DHT22;23311;48.776;9.162;2022-07-01T16:22:24;25.40;67.90